Terminal Aerodrome Forecast
Issued by NWS

Home | Current Version | Previous Version | Text Only | Print | Product List | Glossary On
Versions: 1 2 3 4 5 6 7 8 9 10 11 12 13 14
000
FTAK31 PANC 242103 AAA
TAFAGK
TAF AMD
PAGK 242103Z 2421/2518 15008KT P6SM VCSH SCT040 BKN060
     FM242300 16012G19KT P6SM SCT060 BKN100
     FM250600 17008KT P6SM SCT050 BKN080=

USA.gov is the U.S. government's official web portal to all federal, state and local government web resources and services.